Time;durP1;ratioP1;P1;durP2;ratioP2;P2;SDS_P1;SDS_P2;PMS_P1;PMS_P2;Temp;Humidity;BMP_temperature;BMP_pressure;BME280_temperature;BME280_humidity;BME280_pressure;Samples;Min_cycle;Max_cycle;Signal;HPM_P1;HPM_P2
2022/12/06 00:00:23;;;;;;;;;;;1.10;99.90;;;;;;5074070;28;19940;-65
2022/12/06 00:02:48;;;;;;;;;;;1.10;99.90;;;;;;5074094;28;19908;-65
2022/12/06 00:05:14;;;;;;;;;;;1.10;99.90;;;;;;5074065;28;20014;-65
2022/12/06 00:07:39;;;;;;;;;;;1.20;99.90;;;;;;5073918;28;19912;-65
2022/12/06 00:10:05;;;;;;;;;;;1.10;99.90;;;;;;5074262;28;19991;-65
2022/12/06 00:12:31;;;;;;;;;;;1.10;99.90;;;;;;5074181;28;19958;-65
2022/12/06 00:14:56;;;;;;;;;;;1.10;99.90;;;;;;5073920;28;20350;-65
2022/12/06 00:17:23;;;;;;;;;;;1.10;99.90;;;;;;5073849;28;19909;-65
2022/12/06 00:19:48;;;;;;;;;;;1.10;99.90;;;;;;5074102;28;20351;-65
2022/12/06 00:22:14;;;;;;;;;;;1.10;99.90;;;;;;5073796;28;19937;-65
2022/12/06 00:24:39;;;;;;;;;;;1.10;99.90;;;;;;5073762;28;19909;-65
2022/12/06 00:27:05;;;;;;;;;;;1.10;99.90;;;;;;5073949;28;19959;-65
2022/12/06 00:29:31;;;;;;;;;;;1.10;99.90;;;;;;5074055;28;19999;-65
2022/12/06 00:31:56;;;;;;;;;;;1.10;99.90;;;;;;5056122;28;19908;-64
2022/12/06 00:34:22;;;;;;;;;;;1.10;99.90;;;;;;5073945;28;19915;-65
2022/12/06 00:36:47;;;;;;;;;;;1.10;99.90;;;;;;5073597;28;19908;-65
2022/12/06 00:39:14;;;;;;;;;;;1.10;99.90;;;;;;5073902;28;20042;-65
2022/12/06 00:41:40;;;;;;;;;;;1.10;99.90;;;;;;5073885;28;20316;-65
2022/12/06 00:44:06;;;;;;;;;;;1.10;99.90;;;;;;5073866;28;19987;-65
2022/12/06 00:46:32;;;;;;;;;;;1.10;99.90;;;;;;5073616;28;19915;-65
2022/12/06 00:48:58;;;;;;;;;;;1.10;99.90;;;;;;5073332;28;20288;-65
2022/12/06 00:51:25;;;;;;;;;;;1.10;99.90;;;;;;5073527;28;20007;-65
2022/12/06 00:53:50;;;;;;;;;;;1.10;99.90;;;;;;5073483;28;19912;-64
2022/12/06 00:56:16;;;;;;;;;;;1.20;99.90;;;;;;5073760;28;19958;-65
2022/12/06 00:58:42;;;;;;;;;;;1.10;99.90;;;;;;5073672;28;19995;-65
2022/12/06 01:01:10;;;;;;;;;;;1.10;99.90;;;;;;5073659;28;19908;-65
2022/12/06 01:03:36;;;;;;;;;;;1.10;99.90;;;;;;5073649;28;20011;-65
2022/12/06 01:06:03;;;;;;;;;;;1.20;99.90;;;;;;5073369;28;19955;-65
2022/12/06 01:08:28;;;;;;;;;;;1.10;99.90;;;;;;5073523;28;19920;-65
2022/12/06 01:10:54;;;;;;;;;;;1.10;99.90;;;;;;5077319;28;20290;-65
2022/12/06 01:13:20;;;;;;;;;;;1.20;99.90;;;;;;5077333;28;19909;-65
2022/12/06 01:15:45;;;;;;;;;;;1.10;99.90;;;;;;5077556;28;19908;-66
2022/12/06 01:18:11;;;;;;;;;;;1.10;99.90;;;;;;5077494;28;20243;-65
2022/12/06 01:20:36;;;;;;;;;;;1.10;99.90;;;;;;5077194;28;19908;-65
2022/12/06 01:23:02;;;;;;;;;;;1.10;99.90;;;;;;5077440;28;19909;-65
2022/12/06 01:25:29;;;;;;;;;;;1.10;99.90;;;;;;5077351;28;19908;-65
2022/12/06 01:27:54;;;;;;;;;;;1.10;99.90;;;;;;5077230;28;20312;-64
2022/12/06 01:30:20;;;;;;;;;;;1.20;99.90;;;;;;5077244;28;19916;-65
2022/12/06 01:32:45;;;;;;;;;;;1.20;99.90;;;;;;5077200;28;20000;-65
2022/12/06 01:35:11;;;;;;;;;;;1.20;99.90;;;;;;5076846;28;19916;-65
2022/12/06 01:37:36;;;;;;;;;;;1.20;99.90;;;;;;5077109;28;19915;-66
2022/12/06 01:40:02;;;;;;;;;;;1.10;99.90;;;;;;5077218;28;19909;-65
2022/12/06 01:42:27;;;;;;;;;;;1.10;99.90;;;;;;5076736;28;19957;-65
2022/12/06 01:44:54;;;;;;;;;;;1.10;99.90;;;;;;5076986;28;19957;-65
2022/12/06 01:47:21;;;;;;;;;;;1.20;99.90;;;;;;5076608;28;19967;-65
2022/12/06 01:49:51;;;;;;;;;;;1.20;99.90;;;;;;5076895;28;19909;-65
2022/12/06 01:52:16;;;;;;;;;;;1.20;99.90;;;;;;5076582;28;19908;-66
2022/12/06 01:54:42;;;;;;;;;;;1.20;99.90;;;;;;5076616;28;19954;-65
2022/12/06 01:57:09;;;;;;;;;;;1.20;99.90;;;;;;5076741;28;20316;-65
2022/12/06 01:59:35;;;;;;;;;;;1.20;99.90;;;;;;5076527;28;19916;-65
2022/12/06 02:02:01;;;;;;;;;;;1.20;99.90;;;;;;5076663;28;19932;-65
2022/12/06 02:04:27;;;;;;;;;;;1.20;99.90;;;;;;5076333;28;20382;-65
2022/12/06 02:06:54;;;;;;;;;;;1.20;99.90;;;;;;5076597;28;20312;-65
2022/12/06 02:09:20;;;;;;;;;;;1.20;99.90;;;;;;5076554;28;19912;-65
2022/12/06 02:11:46;;;;;;;;;;;1.20;99.90;;;;;;5076216;28;19916;-64
2022/12/06 02:14:13;;;;;;;;;;;1.20;99.90;;;;;;5076215;28;19909;-65
2022/12/06 02:16:46;;;;;;;;;;;1.20;99.90;;;;;;5076175;28;20022;-65
2022/12/06 02:19:32;;;;;;;;;;;1.20;99.90;;;;;;5076064;28;19952;-65
2022/12/06 02:22:05;;;;;;;;;;;1.20;99.90;;;;;;5075884;28;19908;-64
2022/12/06 02:24:39;;;;;;;;;;;1.20;99.90;;;;;;5076024;28;19912;-65
2022/12/06 02:27:13;;;;;;;;;;;1.20;99.90;;;;;;5076187;28;20321;-65
2022/12/06 02:29:59;;;;;;;;;;;1.20;99.90;;;;;;5075998;28;19909;-65
2022/12/06 02:32:30;;;;;;;;;;;1.20;99.90;;;;;;5075714;28;19908;-65
2022/12/06 02:35:02;;;;;;;;;;;1.20;99.90;;;;;;5075864;28;19958;-65
2022/12/06 02:37:32;;;;;;;;;;;1.20;99.90;;;;;;5076076;28;20301;-65
2022/12/06 02:40:05;;;;;;;;;;;1.30;99.90;;;;;;5075994;28;20366;-65
2022/12/06 02:42:33;;;;;;;;;;;1.20;99.90;;;;;;5075980;28;19912;-65
2022/12/06 02:45:01;;;;;;;;;;;1.20;99.90;;;;;;5075617;28;19912;-65
2022/12/06 02:47:30;;;;;;;;;;;1.20;99.90;;;;;;5075474;28;19927;-65
2022/12/06 02:49:56;;;;;;;;;;;1.20;99.90;;;;;;5075514;28;19948;-65
2022/12/06 02:52:23;;;;;;;;;;;1.20;99.90;;;;;;5075779;28;19909;-65
2022/12/06 02:54:49;;;;;;;;;;;1.20;99.90;;;;;;5075703;28;20381;-64
2022/12/06 02:57:16;;;;;;;;;;;1.20;99.90;;;;;;5075632;28;20003;-65
2022/12/06 02:59:50;;;;;;;;;;;1.20;99.90;;;;;;5075393;28;19908;-65
2022/12/06 03:02:15;;;;;;;;;;;1.20;99.90;;;;;;5057766;28;19908;-66
2022/12/06 03:05:01;;;;;;;;;;;1.20;99.90;;;;;;5075490;28;20385;-65
2022/12/06 03:07:30;;;;;;;;;;;1.30;99.90;;;;;;5074995;28;19912;-65
2022/12/06 03:10:02;;;;;;;;;;;1.20;99.90;;;;;;5075399;28;20007;-65
2022/12/06 03:12:32;;;;;;;;;;;1.30;99.90;;;;;;5075046;28;19930;-64
2022/12/06 03:15:14;;;;;;;;;;;1.30;99.90;;;;;;5075042;28;19908;-64
2022/12/06 03:17:46;;;;;;;;;;;1.20;99.90;;;;;;5075208;28;19909;-65
2022/12/06 03:20:17;;;;;;;;;;;1.20;99.90;;;;;;5075197;28;19958;-64
2022/12/06 03:22:46;;;;;;;;;;;1.30;99.90;;;;;;5075137;28;19908;-65
2022/12/06 03:25:12;;;;;;;;;;;1.30;99.90;;;;;;5074865;28;19909;-65
2022/12/06 03:27:38;;;;;;;;;;;1.30;99.90;;;;;;5074718;28;19913;-65
2022/12/06 03:30:07;;;;;;;;;;;1.20;99.90;;;;;;5074736;28;19908;-64
2022/12/06 03:32:33;;;;;;;;;;;1.20;99.90;;;;;;5074096;28;19915;-65
2022/12/06 03:35:01;;;;;;;;;;;1.30;99.90;;;;;;5074845;28;20003;-65
2022/12/06 03:37:28;;;;;;;;;;;1.30;99.90;;;;;;5074807;28;20361;-64
2022/12/06 03:40:01;;;;;;;;;;;1.30;99.90;;;;;;5074778;28;20323;-65
2022/12/06 03:42:28;;;;;;;;;;;1.30;99.90;;;;;;5074722;28;20350;-65
2022/12/06 03:44:53;;;;;;;;;;;1.30;99.90;;;;;;5074702;28;19908;-65
2022/12/06 03:47:22;;;;;;;;;;;1.30;99.90;;;;;;5074263;28;19921;-66
2022/12/06 03:49:52;;;;;;;;;;;1.30;99.90;;;;;;5074330;28;19954;-65
2022/12/06 03:52:18;;;;;;;;;;;1.40;99.90;;;;;;5074249;28;19916;-64
2022/12/06 03:54:43;;;;;;;;;;;1.40;99.90;;;;;;5074502;28;19909;-65
2022/12/06 03:57:09;;;;;;;;;;;1.40;99.90;;;;;;5074214;28;19909;-65
2022/12/06 03:59:34;;;;;;;;;;;1.40;99.90;;;;;;5074442;28;20389;-64
2022/12/06 04:02:00;;;;;;;;;;;1.30;99.90;;;;;;5074403;28;19908;-65
2022/12/06 04:04:25;;;;;;;;;;;1.30;99.90;;;;;;5074331;28;19909;-65
2022/12/06 04:06:51;;;;;;;;;;;1.40;99.90;;;;;;5074104;28;20416;-65
2022/12/06 04:12:59;;;;;;;;;;;1.40;99.90;;;;;;5073737;28;20006;-65
2022/12/06 04:14:47;;;;;;;;;;;1.40;99.90;;;;;;5073726;28;19908;-65
2022/12/06 04:19:58;;;;;;;;;;;1.40;99.90;;;;;;5073683;28;19931;-65
2022/12/06 04:25:09;;;;;;;;;;;1.40;99.90;;;;;;5073572;28;19923;-65
2022/12/06 04:38:43;;;;;;;;;;;1.50;99.90;;;;;;5073457;28;19909;-66
2022/12/06 04:41:09;;;;;;;;;;;1.40;99.90;;;;;;5073907;28;19956;-66
2022/12/06 04:43:42;;;;;;;;;;;1.40;99.90;;;;;;5055446;28;19912;-65
2022/12/06 04:46:08;;;;;;;;;;;1.40;99.90;;;;;;5073850;28;19916;-65
2022/12/06 04:48:33;;;;;;;;;;;1.40;99.90;;;;;;5073246;28;19925;-65
2022/12/06 04:50:59;;;;;;;;;;;1.40;99.90;;;;;;5073563;28;20358;-65
2022/12/06 04:53:24;;;;;;;;;;;1.40;99.90;;;;;;5073761;28;20297;-65
2022/12/06 04:55:50;;;;;;;;;;;1.40;99.90;;;;;;5073715;28;19958;-66
2022/12/06 04:58:16;;;;;;;;;;;1.40;99.90;;;;;;5073685;28;20305;-65
2022/12/06 05:00:42;;;;;;;;;;;1.40;99.90;;;;;;5073478;28;19908;-65
2022/12/06 05:03:10;;;;;;;;;;;1.40;99.90;;;;;;5073688;28;19909;-65
2022/12/06 05:05:36;;;;;;;;;;;1.50;99.90;;;;;;5073615;28;19999;-66
2022/12/06 05:08:01;;;;;;;;;;;1.50;99.90;;;;;;5073267;28;20372;-65
2022/12/06 05:10:26;;;;;;;;;;;1.50;99.90;;;;;;5073577;28;19909;-65
2022/12/06 05:12:52;;;;;;;;;;;1.50;99.90;;;;;;5073598;28;19916;-65
2022/12/06 05:15:17;;;;;;;;;;;1.50;99.90;;;;;;5073406;28;20404;-65
2022/12/06 05:17:43;;;;;;;;;;;1.50;99.90;;;;;;5073210;28;20065;-65
2022/12/06 05:20:08;;;;;;;;;;;1.50;99.90;;;;;;5073164;28;19912;-66
2022/12/06 05:22:34;;;;;;;;;;;1.50;99.90;;;;;;5073197;28;19916;-65
2022/12/06 05:24:59;;;;;;;;;;;1.50;99.90;;;;;;5073473;28;19912;-65
2022/12/06 05:27:25;;;;;;;;;;;1.50;99.90;;;;;;5073350;28;19916;-66
2022/12/06 05:29:50;;;;;;;;;;;1.50;99.90;;;;;;5073402;28;19909;-65
2022/12/06 05:32:15;;;;;;;;;;;1.50;99.90;;;;;;5073141;28;20408;-64
2022/12/06 05:34:41;;;;;;;;;;;1.50;99.90;;;;;;5073100;28;20317;-65
2022/12/06 05:37:06;;;;;;;;;;;1.60;99.90;;;;;;5073066;28;19930;-65
2022/12/06 05:39:32;;;;;;;;;;;1.60;99.90;;;;;;5073284;28;20031;-66
2022/12/06 05:41:57;;;;;;;;;;;1.60;99.90;;;;;;5073044;28;19916;-66
2022/12/06 05:44:23;;;;;;;;;;;1.50;99.90;;;;;;5073282;28;19908;-66
2022/12/06 05:46:48;;;;;;;;;;;1.50;99.90;;;;;;5073063;28;19991;-65
2022/12/06 05:49:14;;;;;;;;;;;1.50;99.90;;;;;;5072919;28;19919;-65
2022/12/06 05:51:39;;;;;;;;;;;1.50;99.90;;;;;;5072992;28;19908;-66
2022/12/06 05:54:05;;;;;;;;;;;1.60;99.90;;;;;;5072920;28;20353;-65
2022/12/06 05:56:31;;;;;;;;;;;1.50;99.90;;;;;;5076168;28;19908;-65
2022/12/06 05:58:56;;;;;;;;;;;1.60;99.90;;;;;;5076484;28;19951;-66
2022/12/06 06:01:22;;;;;;;;;;;1.60;99.90;;;;;;5076413;28;20362;-66
2022/12/06 06:03:48;;;;;;;;;;;1.60;99.90;;;;;;5076363;28;19915;-65
2022/12/06 06:06:13;;;;;;;;;;;1.60;99.90;;;;;;5076356;28;20290;-65
2022/12/06 06:08:39;;;;;;;;;;;1.60;99.90;;;;;;5076319;28;19913;-66
2022/12/06 06:11:04;;;;;;;;;;;1.60;99.90;;;;;;5076235;28;20297;-66
2022/12/06 06:13:30;;;;;;;;;;;1.70;99.90;;;;;;5076461;28;19997;-66
2022/12/06 06:15:55;;;;;;;;;;;1.60;99.90;;;;;;5076215;28;19915;-65
2022/12/06 06:18:21;;;;;;;;;;;1.60;99.90;;;;;;5076412;28;19955;-65
2022/12/06 06:20:48;;;;;;;;;;;1.60;99.90;;;;;;5076117;28;19909;-66
2022/12/06 06:23:13;;;;;;;;;;;1.60;99.90;;;;;;5076346;28;19958;-66
2022/12/06 06:25:39;;;;;;;;;;;1.60;99.90;;;;;;5076259;28;19909;-65
2022/12/06 06:28:04;;;;;;;;;;;1.70;99.90;;;;;;5076138;28;19913;-66
2022/12/06 06:30:30;;;;;;;;;;;1.70;99.90;;;;;;5076241;28;19952;-65
2022/12/06 06:32:55;;;;;;;;;;;1.70;99.90;;;;;;5075876;28;19916;-65
2022/12/06 06:35:21;;;;;;;;;;;1.70;99.90;;;;;;5076104;28;19916;-66
2022/12/06 06:37:47;;;;;;;;;;;1.70;99.90;;;;;;5057914;28;19909;-65
2022/12/06 06:40:12;;;;;;;;;;;1.80;99.90;;;;;;5076032;28;19908;-66
2022/12/06 06:42:38;;;;;;;;;;;1.70;99.90;;;;;;5075975;28;19909;-66
2022/12/06 06:45:04;;;;;;;;;;;1.80;99.90;;;;;;5075928;28;20263;-66
2022/12/06 06:47:29;;;;;;;;;;;1.80;99.90;;;;;;5075487;28;20263;-65
2022/12/06 06:49:55;;;;;;;;;;;1.80;99.90;;;;;;5075835;28;19928;-65
2022/12/06 06:52:20;;;;;;;;;;;1.80;99.90;;;;;;5075793;28;19908;-65
2022/12/06 06:54:46;;;;;;;;;;;1.80;99.90;;;;;;5075726;28;19915;-66
2022/12/06 06:57:12;;;;;;;;;;;1.80;99.90;;;;;;5075603;28;20054;-65
2022/12/06 06:59:37;;;;;;;;;;;1.80;99.90;;;;;;5075247;28;20301;-66
2022/12/06 07:02:03;;;;;;;;;;;1.80;99.90;;;;;;5075302;28;19915;-65
2022/12/06 07:04:29;;;;;;;;;;;1.80;99.90;;;;;;5075228;28;19913;-65
2022/12/06 07:06:54;;;;;;;;;;;1.80;99.90;;;;;;5075400;28;19915;-65
2022/12/06 07:09:19;;;;;;;;;;;1.80;99.90;;;;;;5075293;28;19999;-65
2022/12/06 07:11:45;;;;;;;;;;;1.80;99.90;;;;;;5075319;28;19913;-65
2022/12/06 07:14:10;;;;;;;;;;;1.90;99.90;;;;;;5074795;28;20434;-65
2022/12/06 07:16:36;;;;;;;;;;;1.90;99.90;;;;;;5075182;28;19963;-65
2022/12/06 07:19:02;;;;;;;;;;;1.80;99.90;;;;;;5075124;28;19909;-65
2022/12/06 07:21:27;;;;;;;;;;;1.90;99.90;;;;;;5074806;28;19908;-64
2022/12/06 07:23:52;;;;;;;;;;;1.90;99.90;;;;;;5075108;28;19909;-64
2022/12/06 07:26:20;;;;;;;;;;;1.90;99.90;;;;;;5075076;28;19908;-65
2022/12/06 07:28:46;;;;;;;;;;;2.00;99.90;;;;;;5074830;28;19916;-64
2022/12/06 07:31:13;;;;;;;;;;;2.00;99.90;;;;;;5074623;28;19909;-64
2022/12/06 07:33:39;;;;;;;;;;;2.00;99.90;;;;;;5074493;28;20010;-65
2022/12/06 07:36:04;;;;;;;;;;;2.00;99.90;;;;;;5074380;28;20347;-65
2022/12/06 07:38:30;;;;;;;;;;;2.00;99.90;;;;;;5074581;28;19913;-65
2022/12/06 07:41:00;;;;;;;;;;;2.00;99.90;;;;;;5074351;28;19999;-65
2022/12/06 07:46:11;;;;;;;;;;;2.00;99.90;;;;;;5074102;28;19915;-65
2022/12/06 07:48:37;;;;;;;;;;;2.00;99.90;;;;;;5073929;28;19920;-64
2022/12/06 07:51:03;;;;;;;;;;;2.00;99.90;;;;;;5056200;28;19986;-64
2022/12/06 07:53:29;;;;;;;;;;;2.00;99.90;;;;;;5074204;28;19908;-64
2022/12/06 07:55:54;;;;;;;;;;;2.10;99.90;;;;;;5074444;28;19912;-64
2022/12/06 07:58:20;;;;;;;;;;;2.10;99.90;;;;;;5074123;28;20422;-64
2022/12/06 08:00:46;;;;;;;;;;;2.10;99.90;;;;;;5074337;28;19935;-65
2022/12/06 08:03:11;;;;;;;;;;;2.10;99.90;;;;;;5074405;28;19931;-65
2022/12/06 08:05:36;;;;;;;;;;;2.20;99.90;;;;;;5074258;28;20346;-65
2022/12/06 08:08:02;;;;;;;;;;;2.20;99.90;;;;;;5074145;28;19913;-65
2022/12/06 08:10:27;;;;;;;;;;;2.20;99.90;;;;;;5074185;28;19980;-64
2022/12/06 08:12:53;;;;;;;;;;;2.20;99.90;;;;;;5073966;28;20377;-65
2022/12/06 08:15:18;;;;;;;;;;;2.20;99.90;;;;;;5073798;28;19909;-65
2022/12/06 08:17:45;;;;;;;;;;;2.30;99.90;;;;;;5073720;28;19962;-65
2022/12/06 08:20:11;;;;;;;;;;;2.30;99.90;;;;;;5074099;28;19908;-64
2022/12/06 08:22:36;;;;;;;;;;;2.30;99.90;;;;;;5073728;28;19915;-64
2022/12/06 08:25:02;;;;;;;;;;;2.30;99.90;;;;;;5073707;28;19916;-64
2022/12/06 08:27:27;;;;;;;;;;;2.40;99.90;;;;;;5055767;28;19953;-65
2022/12/06 08:29:53;;;;;;;;;;;2.40;99.90;;;;;;5073679;28;19958;-65
2022/12/06 08:32:18;;;;;;;;;;;2.40;99.90;;;;;;5073887;28;19915;-64
2022/12/06 08:34:44;;;;;;;;;;;2.40;99.90;;;;;;5073869;28;19908;-65
2022/12/06 08:37:10;;;;;;;;;;;2.40;99.90;;;;;;5073609;28;20439;-64
2022/12/06 08:39:35;;;;;;;;;;;2.40;99.90;;;;;;5073473;28;19947;-64
2022/12/06 08:42:02;;;;;;;;;;;2.30;99.90;;;;;;5073557;28;19947;-64
2022/12/06 08:44:29;;;;;;;;;;;2.40;99.90;;;;;;5073843;28;20369;-64
2022/12/06 08:46:55;;;;;;;;;;;2.40;99.90;;;;;;5073650;28;20011;-64
2022/12/06 08:49:21;;;;;;;;;;;2.40;99.90;;;;;;5073652;28;20388;-64
2022/12/06 08:51:47;;;;;;;;;;;2.40;99.90;;;;;;5073657;28;19916;-64
2022/12/06 08:54:13;;;;;;;;;;;2.40;99.90;;;;;;5073594;28;20290;-63
2022/12/06 08:56:39;;;;;;;;;;;2.50;99.90;;;;;;5073463;28;19934;-64
2022/12/06 08:59:04;;;;;;;;;;;2.50;99.90;;;;;;5073374;28;19912;-64
2022/12/06 09:01:31;;;;;;;;;;;2.60;99.90;;;;;;5073362;28;19998;-63
2022/12/06 09:03:58;;;;;;;;;;;2.60;99.90;;;;;;5073539;28;20358;-64
2022/12/06 09:06:23;;;;;;;;;;;2.60;99.90;;;;;;5073277;28;19995;-64
2022/12/06 09:08:48;;;;;;;;;;;2.60;99.90;;;;;;5073516;28;20012;-63
2022/12/06 09:11:14;;;;;;;;;;;2.60;99.90;;;;;;5073280;28;20374;-64
2022/12/06 09:13:40;;;;;;;;;;;2.70;99.90;;;;;;5073323;28;19916;-64
2022/12/06 09:16:08;;;;;;;;;;;2.70;99.90;;;;;;5073245;28;19909;-64
2022/12/06 09:18:33;;;;;;;;;;;2.80;99.90;;;;;;5073503;28;19909;-64
2022/12/06 09:20:59;;;;;;;;;;;2.80;99.90;;;;;;5073163;28;20320;-64
2022/12/06 09:23:24;;;;;;;;;;;2.80;99.90;;;;;;5073191;28;20366;-64
2022/12/06 09:25:50;;;;;;;;;;;2.80;99.90;;;;;;5073237;28;19969;-64
2022/12/06 09:28:15;;;;;;;;;;;2.90;99.90;;;;;;5073209;28;19916;-64
2022/12/06 09:30:41;;;;;;;;;;;2.90;99.90;;;;;;5074989;28;19909;-64
2022/12/06 09:33:06;;;;;;;;;;;2.90;99.90;;;;;;5076890;28;19909;-64
2022/12/06 09:35:32;;;;;;;;;;;2.90;99.90;;;;;;5076977;28;19958;-64
2022/12/06 09:37:59;;;;;;;;;;;2.90;99.90;;;;;;5057674;28;19939;-64
2022/12/06 09:40:31;;;;;;;;;;;3.00;99.90;;;;;;5076404;28;19919;-64
2022/12/06 09:43:16;;;;;;;;;;;3.00;99.90;;;;;;5076426;28;20297;-64
2022/12/06 09:45:56;;;;;;;;;;;3.00;99.90;;;;;;5061927;28;20377;-63
2022/12/06 09:48:32;;;;;;;;;;;3.10;99.90;;;;;;5076144;28;19920;-64
2022/12/06 09:51:17;;;;;;;;;;;3.10;99.90;;;;;;5076512;28;19913;-64
2022/12/06 09:56:25;;;;;;;;;;;3.20;99.90;;;;;;5070923;28;20303;-66
2022/12/06 09:58:58;;;;;;;;;;;3.30;99.90;;;;;;5071145;28;19916;-66
2022/12/06 10:01:29;;;;;;;;;;;3.30;99.90;;;;;;5071070;28;19936;-66
2022/12/06 10:04:02;;;;;;;;;;;3.40;99.90;;;;;;5071062;28;19909;-66
2022/12/06 10:06:30;;;;;;;;;;;3.50;99.90;;;;;;5069555;28;20011;-66
2022/12/06 10:09:16;;;;;;;;;;;3.50;99.90;;;;;;5070825;28;20393;-66
2022/12/06 10:11:51;;;;;;;;;;;3.60;99.90;;;;;;5070613;28;19958;-66
2022/12/06 10:14:36;;;;;;;;;;;3.60;99.90;;;;;;5070561;28;20041;-66
2022/12/06 10:17:12;;;;;;;;;;;3.70;99.90;;;;;;5070546;28;19966;-66
2022/12/06 10:19:44;;;;;;;;;;;3.80;99.90;;;;;;5070546;28;19966;-66
2022/12/06 10:22:15;;;;;;;;;;;3.80;99.90;;;;;;5070500;28;19948;-66
2022/12/06 10:27:21;;;;;;;;;;;3.90;99.90;;;;;;5108576;27;1848940;-66
2022/12/06 10:29:53;;;;;;;;;;;3.90;99.90;;;;;;5173602;27;19963;-66
2022/12/06 10:32:38;;;;;;;;;;;4.00;99.90;;;;;;5173688;27;20357;-66
2022/12/06 10:35:24;;;;;;;;;;;4.10;99.90;;;;;;5173357;27;19955;-65
2022/12/06 10:38:09;;;;;;;;;;;4.10;99.90;;;;;;5173261;27;19911;-66
2022/12/06 10:40:55;;;;;;;;;;;4.10;99.90;;;;;;5173098;27;19953;-64
2022/12/06 10:43:31;;;;;;;;;;;4.10;99.90;;;;;;5173079;27;19938;-63
2022/12/06 10:48:53;;;;;;;;;;;4.10;99.90;;;;;;5091320;27;19913;-66
2022/12/06 10:51:21;;;;;;;;;;;4.20;99.90;;;;;;5091185;28;19912;-66
2022/12/06 10:53:50;;;;;;;;;;;4.20;99.90;;;;;;5089740;28;19908;-66
2022/12/06 10:56:17;;;;;;;;;;;4.20;99.90;;;;;;5091217;28;19962;-66
2022/12/06 10:58:47;;;;;;;;;;;4.30;99.90;;;;;;5091017;28;20282;-66
2022/12/06 11:01:31;;;;;;;;;;;4.30;99.90;;;;;;5091001;28;19965;-65
2022/12/06 11:04:07;;;;;;;;;;;4.30;99.90;;;;;;5091014;28;19974;-66
2022/12/06 11:06:36;;;;;;;;;;;4.40;99.90;;;;;;5090978;28;19939;-66
2022/12/06 11:09:11;;;;;;;;;;;4.40;99.90;;;;;;5090600;28;19957;-66
2022/12/06 11:11:38;;;;;;;;;;;4.40;99.90;;;;;;5090964;28;19912;-66
2022/12/06 11:14:19;;;;;;;;;;;4.40;99.90;;;;;;5090891;28;19915;-65
2022/12/06 11:16:52;;;;;;;;;;;4.50;99.90;;;;;;5090589;28;20422;-66
2022/12/06 11:19:21;;;;;;;;;;;4.40;99.90;;;;;;5090795;28;19909;-65
2022/12/06 11:21:52;;;;;;;;;;;4.40;99.90;;;;;;5090788;28;20351;-66
2022/12/06 11:24:22;;;;;;;;;;;4.50;99.90;;;;;;5090528;28;20011;-66
2022/12/06 11:26:56;;;;;;;;;;;4.60;99.90;;;;;;5090595;28;19913;-66
2022/12/06 11:29:21;;;;;;;;;;;4.60;99.90;;;;;;5090516;28;19912;-66
2022/12/06 11:31:50;;;;;;;;;;;4.60;99.90;;;;;;5090472;28;19908;-66
2022/12/06 11:34:19;;;;;;;;;;;4.70;99.90;;;;;;5090266;28;20011;-66
2022/12/06 11:36:45;;;;;;;;;;;4.70;99.90;;;;;;5090208;28;19908;-66
2022/12/06 11:39:13;;;;;;;;;;;4.70;99.90;;;;;;5089060;28;19970;-66
2022/12/06 11:41:38;;;;;;;;;;;4.70;99.90;;;;;;5090084;28;19908;-66
2022/12/06 11:44:04;;;;;;;;;;;4.60;99.90;;;;;;5090057;28;19909;-66
2022/12/06 11:46:38;;;;;;;;;;;4.70;99.90;;;;;;5092099;28;19913;-66
2022/12/06 11:49:14;;;;;;;;;;;4.70;99.90;;;;;;5110570;28;19920;-66
2022/12/06 11:51:39;;;;;;;;;;;4.60;99.90;;;;;;5110112;28;19908;-66
2022/12/06 11:54:10;;;;;;;;;;;4.60;99.90;;;;;;5110417;28;19914;-66
2022/12/06 11:56:37;;;;;;;;;;;4.70;99.90;;;;;;5110306;28;19915;-66
2022/12/06 11:59:24;;;;;;;;;;;4.80;99.90;;;;;;5102359;28;20376;-65
2022/12/06 12:01:50;;;;;;;;;;;4.70;99.90;;;;;;5078330;28;19908;-66
2022/12/06 12:04:36;;;;;;;;;;;4.70;99.90;;;;;;5096447;28;19916;-66
2022/12/06 12:07:13;;;;;;;;;;;4.70;99.90;;;;;;5096282;28;20068;-66
2022/12/06 12:09:48;;;;;;;;;;;4.70;99.90;;;;;;5096315;28;19995;-66
2022/12/06 12:12:16;;;;;;;;;;;4.60;99.90;;;;;;5096536;28;19908;-65
2022/12/06 12:14:42;;;;;;;;;;;4.70;99.90;;;;;;5096595;28;20020;-66
2022/12/06 12:17:13;;;;;;;;;;;4.70;99.90;;;;;;5084630;28;19909;-66
2022/12/06 12:19:58;;;;;;;;;;;4.70;99.90;;;;;;5085611;28;19908;-66
2022/12/06 12:22:29;;;;;;;;;;;4.80;99.90;;;;;;5091656;28;19962;-66
2022/12/06 12:24:56;;;;;;;;;;;4.80;99.90;;;;;;5088252;28;20282;-66
2022/12/06 12:27:40;;;;;;;;;;;4.80;99.90;;;;;;5081027;28;19916;-66
2022/12/06 12:30:22;;;;;;;;;;;4.70;99.90;;;;;;5096261;28;19998;-66
2022/12/06 12:32:49;;;;;;;;;;;4.80;99.90;;;;;;5082336;28;19908;-66
2022/12/06 12:35:24;;;;;;;;;;;4.80;99.90;;;;;;5084048;28;19944;-67
2022/12/06 12:37:52;;;;;;;;;;;4.80;99.90;;;;;;5075821;28;19958;-66
2022/12/06 12:40:26;;;;;;;;;;;4.80;99.90;;;;;;5075850;28;20362;-66
2022/12/06 12:42:56;;;;;;;;;;;4.90;99.90;;;;;;5075722;28;20380;-66
2022/12/06 12:45:22;;;;;;;;;;;4.90;99.90;;;;;;5075688;28;19962;-66
2022/12/06 12:47:56;;;;;;;;;;;4.90;99.90;;;;;;5075257;28;19956;-66
2022/12/06 12:50:23;;;;;;;;;;;5.00;99.90;;;;;;5075596;28;19909;-66
2022/12/06 12:52:49;;;;;;;;;;;4.90;99.90;;;;;;5075605;28;19926;-66
2022/12/06 12:55:17;;;;;;;;;;;4.90;99.90;;;;;;5075311;28;19916;-66
2022/12/06 12:57:44;;;;;;;;;;;4.90;99.90;;;;;;5075526;28;20332;-66
2022/12/06 13:00:13;;;;;;;;;;;4.90;99.90;;;;;;5075414;28;20003;-66
2022/12/06 13:02:40;;;;;;;;;;;4.90;99.90;;;;;;5075313;28;19908;-67
2022/12/06 13:05:20;;;;;;;;;;;4.90;99.90;;;;;;5075002;28;19908;-66
2022/12/06 13:07:47;;;;;;;;;;;4.80;99.90;;;;;;5075226;28;19912;-66
2022/12/06 13:10:16;;;;;;;;;;;4.90;99.90;;;;;;5074058;28;20409;-66
2022/12/06 13:12:44;;;;;;;;;;;4.90;99.90;;;;;;5075159;28;19916;-66
2022/12/06 13:15:14;;;;;;;;;;;4.90;99.90;;;;;;5074580;28;19926;-67
2022/12/06 13:17:41;;;;;;;;;;;4.90;99.90;;;;;;5074570;28;20003;-66
2022/12/06 13:20:17;;;;;;;;;;;4.90;99.90;;;;;;5074680;28;19999;-67
2022/12/06 13:22:44;;;;;;;;;;;4.90;99.90;;;;;;5074983;28;20333;-67
2022/12/06 13:25:10;;;;;;;;;;;4.90;99.90;;;;;;5074606;28;20020;-66
2022/12/06 13:27:41;;;;;;;;;;;5.00;99.90;;;;;;5074357;28;20421;-66
2022/12/06 13:30:23;;;;;;;;;;;4.90;99.90;;;;;;5075038;28;19908;-67
2022/12/06 13:32:51;;;;;;;;;;;4.90;99.90;;;;;;5082903;28;20350;-66
2022/12/06 13:35:20;;;;;;;;;;;5.00;99.90;;;;;;5077968;28;19961;-66
2022/12/06 13:38:06;;;;;;;;;;;5.00;99.90;;;;;;5085242;28;19915;-67
2022/12/06 13:48:48;;;;;;;;;;;4.80;99.90;;;;;;5071055;28;19919;-66
2022/12/06 13:51:34;;;;;;;;;;;4.80;99.90;;;;;;5071204;28;19959;-66
2022/12/06 13:56:41;;;;;;;;;;;4.80;99.90;;;;;;5070937;28;20301;-65
2022/12/06 13:59:16;;;;;;;;;;;4.70;99.90;;;;;;5070816;28;19999;-65
2022/12/06 14:01:48;;;;;;;;;;;4.70;99.90;;;;;;5070795;28;19916;-65
2022/12/06 14:04:29;;;;;;;;;;;4.70;99.90;;;;;;5070767;28;19909;-65
2022/12/06 14:09:43;;;;;;;;;;;4.70;99.90;;;;;;5070914;28;19919;-67
2022/12/06 14:12:16;;;;;;;;;;;4.70;99.90;;;;;;5070912;28;19952;-67
2022/12/06 14:14:42;;;;;;;;;;;4.70;99.90;;;;;;5071120;28;19916;-67
2022/12/06 14:17:11;;;;;;;;;;;4.60;99.90;;;;;;5070860;28;19924;-67
2022/12/06 14:19:44;;;;;;;;;;;4.50;99.90;;;;;;5070779;28;19909;-67
2022/12/06 14:22:26;;;;;;;;;;;4.40;99.90;;;;;;5070865;28;19909;-67
2022/12/06 14:25:00;;;;;;;;;;;4.30;99.90;;;;;;5070813;28;20420;-66
2022/12/06 14:27:28;;;;;;;;;;;4.10;99.90;;;;;;5070755;28;19959;-67
2022/12/06 14:29:58;;;;;;;;;;;4.00;99.90;;;;;;5070463;28;19908;-67
2022/12/06 14:32:43;;;;;;;;;;;3.80;99.90;;;;;;5070700;28;20476;-67
2022/12/06 14:35:17;;;;;;;;;;;3.70;99.90;;;;;;5065246;28;20255;-67
2022/12/06 14:38:04;;;;;;;;;;;3.60;99.90;;;;;;5050730;28;20433;-66
2022/12/06 14:43:14;;;;;;;;;;;3.40;99.90;;;;;;5061737;28;19919;-67
2022/12/06 14:45:41;;;;;;;;;;;3.30;99.90;;;;;;5060206;28;19920;-67
2022/12/06 14:48:09;;;;;;;;;;;3.30;99.90;;;;;;5050889;28;19963;-66
2022/12/06 14:50:47;;;;;;;;;;;3.40;99.90;;;;;;5050789;28;19913;-66
2022/12/06 14:53:14;;;;;;;;;;;3.40;99.90;;;;;;5049545;28;19952;-67
2022/12/06 14:55:59;;;;;;;;;;;3.40;99.90;;;;;;5065431;28;19909;-66
2022/12/06 14:58:26;;;;;;;;;;;3.30;99.90;;;;;;5061542;28;19909;-67
2022/12/06 15:00:58;;;;;;;;;;;3.30;99.90;;;;;;5061415;28;19912;-65
2022/12/06 15:03:27;;;;;;;;;;;3.30;99.90;;;;;;5070530;28;20007;-67
2022/12/06 15:06:12;;;;;;;;;;;3.30;99.90;;;;;;5062182;28;20371;-66
2022/12/06 15:08:40;;;;;;;;;;;3.30;99.90;;;;;;5050387;28;20362;-65
2022/12/06 15:14:10;;;;;;;;;;;3.40;99.90;;;;;;5050025;28;19954;-65
2022/12/06 15:16:35;;;;;;;;;;;3.30;99.90;;;;;;5050195;28;19910;-65
2022/12/06 15:19:01;;;;;;;;;;;3.30;99.90;;;;;;5050243;28;19916;-66
2022/12/06 15:21:26;;;;;;;;;;;3.30;99.90;;;;;;5069000;28;19912;-65
2022/12/06 15:23:53;;;;;;;;;;;3.30;99.90;;;;;;5070095;28;19913;-65
2022/12/06 15:26:19;;;;;;;;;;;3.30;99.90;;;;;;5070322;28;19909;-64
2022/12/06 15:28:45;;;;;;;;;;;3.30;99.90;;;;;;5070216;28;19909;-67